createdAt,value
2018-11-29T00:02:26.809Z,-0.04
2018-11-29T00:04:59.806Z,0.00
2018-11-29T00:07:39.109Z,0.30
2018-11-29T00:10:11.178Z,0.30
2018-11-29T00:12:44.137Z,0.03
2018-11-29T00:15:17.298Z,0.01
2018-11-29T00:17:49.355Z,-0.10
2018-11-29T00:20:24.578Z,0.09
2018-11-29T00:22:56.528Z,0.21
2018-11-29T00:25:28.623Z,0.07
2018-11-29T00:28:00.664Z,0.21
2018-11-29T00:30:32.797Z,0.34
2018-11-29T00:33:04.840Z,-0.13
2018-11-29T00:35:36.978Z,0.36
2018-11-29T00:38:09.204Z,0.32
2018-11-29T00:40:41.243Z,-0.17
2018-11-29T00:43:13.331Z,-0.25
2018-11-29T00:45:45.421Z,-0.18
2018-11-29T00:48:17.501Z,-0.32
2018-11-29T00:50:49.583Z,-0.16
2018-11-29T00:53:21.675Z,0.28
2018-11-29T00:55:53.758Z,0.24
2018-11-29T00:58:25.730Z,0.27
2018-11-29T01:00:57.813Z,0.13
2018-11-29T01:03:29.844Z,0.09
2018-11-29T01:06:01.860Z,0.23
2018-11-29T01:08:33.979Z,0.27
2018-11-29T01:11:06.174Z,0.37
2018-11-29T01:13:38.214Z,0.21
2018-11-29T01:16:10.363Z,-0.19
2018-11-29T01:18:42.419Z,-0.24
2018-11-29T01:21:14.533Z,0.13
2018-11-29T01:23:46.520Z,-0.03
2018-11-29T01:26:18.635Z,-0.03
2018-11-29T01:28:50.694Z,0.02
2018-11-29T01:31:22.779Z,0.06
2018-11-29T01:33:54.847Z,-0.01
2018-11-29T01:36:26.936Z,-0.41
2018-11-29T01:38:58.981Z,-0.15
2018-11-29T01:41:31.088Z,-0.02
2018-11-29T01:44:03.152Z,-0.31
2018-11-29T01:46:35.257Z,-0.37
2018-11-29T01:49:07.318Z,-0.11
2018-11-29T01:51:39.432Z,0.03
2018-11-29T01:54:11.500Z,-0.10
2018-11-29T01:56:43.614Z,0.17
2018-11-29T01:59:15.712Z,0.13
2018-11-29T02:01:47.808Z,-0.01
2018-11-29T02:04:19.924Z,0.16
2018-11-29T02:06:51.992Z,-0.21
2018-11-29T02:09:24.973Z,-0.43
2018-11-29T02:11:57.062Z,-0.04
2018-11-29T02:14:29.140Z,-0.20
2018-11-29T02:17:01.341Z,-0.27
2018-11-29T02:19:33.410Z,-0.48
2018-11-29T02:22:05.716Z,-0.25
2018-11-29T02:24:37.688Z,-0.21
2018-11-29T02:27:10.709Z,-0.31
2018-11-29T02:29:42.900Z,-0.57
2018-11-29T02:32:15.008Z,-0.34
2018-11-29T02:34:47.061Z,-0.65
2018-11-29T02:37:19.173Z,-0.62
2018-11-29T02:39:51.281Z,-0.68
2018-11-29T02:42:23.427Z,-0.56
2018-11-29T02:44:55.510Z,-0.34
2018-11-29T02:47:27.606Z,-0.38
2018-11-29T02:49:59.673Z,-0.50
2018-11-29T02:52:31.755Z,-0.46
2018-11-29T02:55:03.828Z,-0.31
2018-11-29T02:57:36.131Z,-0.23
2018-11-29T03:00:17.594Z,-0.72
2018-11-29T03:02:49.719Z,-0.55
2018-11-29T03:05:21.832Z,-0.33
2018-11-29T03:07:53.798Z,-0.34
2018-11-29T03:10:28.685Z,-0.29
2018-11-29T03:13:00.768Z,-0.39
2018-11-29T03:15:32.864Z,-0.56
2018-11-29T03:18:04.967Z,-0.42
2018-11-29T03:20:37.094Z,-0.13
2018-11-29T03:23:09.526Z,-0.21
2018-11-29T03:25:41.655Z,-0.59
2018-11-29T03:28:13.757Z,-0.56
2018-11-29T03:30:45.829Z,-0.59
2018-11-29T03:33:18.861Z,-1.06
2018-11-29T03:35:50.845Z,-0.64
2018-11-29T03:38:22.938Z,-0.50
2018-11-29T03:40:55.009Z,-0.90
2018-11-29T03:43:27.218Z,-0.65
2018-11-29T03:45:59.250Z,-1.00
2018-11-29T03:48:31.315Z,-0.63
2018-11-29T03:51:03.297Z,-0.65
2018-11-29T03:53:35.438Z,-0.94
2018-11-29T03:56:08.060Z,-0.94
2018-11-29T03:58:40.184Z,-0.78
2018-11-29T04:01:12.248Z,-0.47
2018-11-29T04:03:44.337Z,-0.36
2018-11-29T04:06:16.399Z,-0.51
2018-11-29T04:08:48.525Z,-0.44
2018-11-29T04:11:20.625Z,-0.56
2018-11-29T04:13:52.666Z,-0.57
2018-11-29T04:16:24.744Z,-0.72
2018-11-29T04:18:56.928Z,-0.53
2018-11-29T04:21:29.020Z,-0.48
2018-11-29T04:24:01.096Z,-0.39
2018-11-29T04:26:33.185Z,-0.44
2018-11-29T04:29:05.282Z,-0.58
2018-11-29T04:31:38.277Z,-0.31
2018-11-29T04:34:10.346Z,-0.24
2018-11-29T04:36:42.400Z,-0.31
2018-11-29T04:39:14.480Z,-0.55
2018-11-29T04:41:46.543Z,-0.64
2018-11-29T04:44:18.614Z,-0.38
2018-11-29T04:46:52.255Z,-0.39
2018-11-29T04:49:24.399Z,-0.35
2018-11-29T04:51:56.462Z,-0.22
2018-11-29T04:54:28.545Z,-0.28
2018-11-29T04:57:00.605Z,-0.44
2018-11-29T04:59:32.653Z,-0.30
2018-11-29T05:02:04.748Z,-0.30
2018-11-29T05:04:36.969Z,-0.17
2018-11-29T05:07:09.076Z,-0.37
2018-11-29T05:09:41.285Z,-0.37
2018-11-29T05:12:13.468Z,-0.76
2018-11-29T05:14:45.782Z,-0.62
2018-11-29T05:17:17.854Z,-0.39
2018-11-29T05:19:49.939Z,-0.44
2018-11-29T05:22:22.041Z,-0.37
2018-11-29T05:24:54.164Z,-0.30
2018-11-29T05:27:26.361Z,-0.42
2018-11-29T05:29:58.521Z,-0.42
2018-11-29T05:32:30.605Z,-0.09
2018-11-29T05:35:02.715Z,-0.15
2018-11-29T05:37:35.671Z,-0.30
2018-11-29T05:40:12.879Z,-0.24
2018-11-29T05:42:45.291Z,-0.10
2018-11-29T05:45:18.316Z,-0.14
2018-11-29T05:47:50.421Z,-0.69
2018-11-29T05:50:25.353Z,-0.15
2018-11-29T05:52:57.340Z,-0.61
2018-11-29T05:55:29.500Z,-0.72
2018-11-29T05:58:01.501Z,-0.41
2018-11-29T06:00:34.549Z,-0.40
2018-11-29T06:03:06.720Z,-0.77
2018-11-29T06:05:39.502Z,-0.48
2018-11-29T06:08:11.671Z,-0.58
2018-11-29T06:10:43.740Z,-0.31
2018-11-29T06:13:15.804Z,-0.66
2018-11-29T06:15:47.814Z,-0.62
2018-11-29T06:18:19.875Z,-0.51
2018-11-29T06:20:52.114Z,-0.73
2018-11-29T06:23:24.210Z,-0.43
2018-11-29T06:25:56.374Z,-0.43
2018-11-29T06:28:28.466Z,0.09
2018-11-29T06:31:00.643Z,0.10
2018-11-29T06:33:32.794Z,0.24
2018-11-29T06:36:04.972Z,-0.04
2018-11-29T06:38:37.136Z,0.13
2018-11-29T06:41:09.737Z,-0.46
2018-11-29T06:43:41.868Z,-0.30
2018-11-29T06:46:13.973Z,-0.03
2018-11-29T06:48:46.068Z,-0.67
2018-11-29T06:51:18.273Z,-0.53
2018-11-29T06:53:59.866Z,-0.66
2018-11-29T06:56:31.987Z,-0.48
2018-11-29T06:59:04.084Z,-0.67
2018-11-29T07:01:36.275Z,-0.55
2018-11-29T07:04:08.466Z,-0.28
2018-11-29T07:06:40.485Z,-0.27
2018-11-29T07:09:12.540Z,-0.30
2018-11-29T07:11:44.643Z,-0.50
2018-11-29T07:14:16.695Z,-0.65
2018-11-29T07:16:48.794Z,-0.62
2018-11-29T07:19:20.889Z,-0.26
2018-11-29T07:21:57.248Z,-0.21
2018-11-29T07:24:29.356Z,-0.13
2018-11-29T07:27:01.484Z,-0.12
2018-11-29T07:29:36.536Z,0.15
2018-11-29T07:32:11.864Z,-0.35
2018-11-29T07:34:44.848Z,-0.01
2018-11-29T07:37:17.450Z,-0.07
2018-11-29T07:39:49.650Z,0.18
2018-11-29T07:42:21.759Z,0.29
2018-11-29T07:44:53.889Z,0.10
2018-11-29T07:47:26.076Z,0.56
2018-11-29T07:49:58.205Z,0.69
2018-11-29T07:52:30.354Z,0.84
2018-11-29T07:55:02.455Z,0.41
2018-11-29T07:57:34.577Z,0.42
2018-11-29T08:00:09.000Z,0.00
2018-11-29T08:02:41.095Z,0.19
2018-11-29T08:05:14.973Z,0.02
2018-11-29T08:07:50.750Z,0.49
2018-11-29T08:10:23.097Z,0.51
2018-11-29T08:12:55.195Z,0.41
2018-11-29T08:15:27.327Z,0.40
2018-11-29T08:17:59.511Z,0.69
2018-11-29T08:20:31.585Z,0.49
2018-11-29T08:23:03.697Z,0.99
2018-11-29T08:25:35.816Z,0.69
2018-11-29T08:28:08.066Z,1.12
2018-11-29T08:30:40.155Z,0.97
2018-11-29T08:33:12.300Z,0.92
2018-11-29T08:35:44.453Z,1.35
2018-11-29T08:38:16.615Z,1.72
2018-11-29T08:40:48.810Z,1.80
2018-11-29T08:43:23.060Z,1.75
2018-11-29T08:45:55.257Z,1.63
2018-11-29T08:48:27.372Z,1.64
2018-11-29T08:50:59.514Z,1.95
2018-11-29T08:53:31.629Z,1.34
2018-11-29T08:56:03.703Z,1.42
2018-11-29T08:58:35.876Z,1.55
2018-11-29T09:01:08.066Z,1.30
2018-11-29T09:03:40.174Z,1.31
2018-11-29T09:06:12.216Z,1.40
2018-11-29T09:08:44.416Z,1.49
2018-11-29T09:11:16.484Z,1.18
2018-11-29T09:13:48.575Z,1.71
2018-11-29T09:16:20.633Z,2.52
2018-11-29T09:18:52.727Z,4.26
2018-11-29T09:21:24.832Z,3.93
2018-11-29T09:23:57.108Z,3.30
2018-11-29T09:26:29.367Z,2.81
2018-11-29T09:29:01.520Z,2.80
2018-11-29T09:31:33.791Z,3.31
2018-11-29T09:34:06.166Z,3.38
2018-11-29T09:36:38.311Z,2.74
2018-11-29T09:39:11.627Z,2.99
2018-11-29T09:41:43.782Z,2.69
2018-11-29T09:44:15.958Z,2.92
2018-11-29T09:46:48.069Z,2.97
2018-11-29T09:49:20.158Z,3.05
2018-11-29T09:51:52.249Z,2.47
2018-11-29T09:54:24.361Z,2.48
2018-11-29T09:56:56.441Z,2.68
2018-11-29T09:59:28.622Z,2.94
2018-11-29T10:02:00.717Z,3.41
2018-11-29T10:04:32.847Z,3.23
2018-11-29T10:07:04.987Z,3.82
2018-11-29T10:09:37.032Z,3.35
2018-11-29T10:12:09.159Z,3.47
2018-11-29T10:14:42.290Z,3.64
2018-11-29T10:17:14.389Z,3.35
2018-11-29T10:19:46.560Z,3.70
2018-11-29T10:22:18.667Z,3.81
2018-11-29T10:24:50.735Z,3.67
2018-11-29T10:27:22.826Z,3.79
2018-11-29T10:29:54.819Z,3.77
2018-11-29T10:32:27.817Z,3.66
2018-11-29T10:35:00.134Z,3.61
2018-11-29T10:37:32.395Z,3.48
2018-11-29T10:40:05.127Z,3.67
2018-11-29T10:42:37.257Z,4.20
2018-11-29T10:45:16.949Z,4.26
2018-11-29T10:47:52.505Z,4.20
2018-11-29T10:50:23.891Z,4.25
2018-11-29T10:52:55.940Z,4.04
2018-11-29T10:55:28.083Z,3.99
2018-11-29T10:58:00.281Z,4.31
2018-11-29T11:00:54.117Z,4.46
2018-11-29T11:03:26.246Z,4.24
2018-11-29T11:05:58.375Z,4.54
2018-11-29T11:08:30.453Z,3.91
2018-11-29T11:11:08.899Z,4.35
2018-11-29T11:13:41.331Z,4.32
2018-11-29T11:16:16.944Z,4.64
2018-11-29T11:18:49.044Z,4.49
2018-11-29T11:21:21.207Z,4.29
2018-11-29T11:23:59.201Z,4.46
2018-11-29T11:26:26.311Z,4.71
2018-11-29T11:28:58.388Z,4.42
2018-11-29T11:31:31.234Z,4.41
2018-11-29T11:34:03.466Z,4.30
2018-11-29T11:36:35.654Z,4.37
2018-11-29T11:39:09.857Z,4.38
2018-11-29T11:41:42.066Z,4.48
2018-11-29T11:44:14.287Z,4.34
2018-11-29T11:46:46.423Z,4.50
2018-11-29T11:49:18.527Z,4.79
2018-11-29T11:51:50.643Z,4.42
2018-11-29T11:54:22.642Z,4.40
2018-11-29T11:56:54.868Z,4.71
2018-11-29T11:59:26.941Z,4.56
2018-11-29T12:01:59.531Z,4.63
2018-11-29T12:04:31.798Z,4.83
2018-11-29T12:07:04.048Z,5.03
2018-11-29T12:09:36.292Z,4.83
2018-11-29T12:12:08.844Z,4.54
2018-11-29T12:14:41.067Z,4.81
2018-11-29T12:17:13.131Z,4.73
2018-11-29T12:19:45.252Z,4.75
2018-11-29T12:22:17.383Z,4.78
2018-11-29T12:24:50.407Z,4.88
2018-11-29T12:27:22.508Z,4.88
2018-11-29T12:29:54.675Z,4.86
2018-11-29T12:32:26.916Z,4.61
2018-11-29T12:34:58.980Z,4.73
2018-11-29T12:37:31.150Z,4.74
2018-11-29T12:40:03.241Z,4.94
2018-11-29T12:42:35.441Z,4.79
2018-11-29T12:45:12.376Z,4.95
2018-11-29T12:47:45.106Z,5.03
2018-11-29T12:50:25.019Z,4.80
2018-11-29T12:52:57.052Z,4.63
2018-11-29T12:55:29.561Z,4.55
2018-11-29T12:58:05.721Z,4.51
2018-11-29T13:00:34.857Z,4.87
2018-11-29T13:05:42.251Z,5.15
2018-11-29T13:08:14.374Z,4.92
2018-11-29T13:10:46.685Z,4.64
2018-11-29T13:13:18.888Z,4.79
2018-11-29T13:15:51.032Z,4.81
2018-11-29T13:18:23.171Z,4.73
2018-11-29T13:21:03.604Z,4.60
2018-11-29T13:23:35.790Z,4.75
2018-11-29T13:26:08.159Z,4.59
2018-11-29T13:28:40.194Z,4.49
2018-11-29T13:31:12.274Z,4.58
2018-11-29T13:33:44.423Z,4.50
2018-11-29T13:36:16.479Z,4.86
2018-11-29T13:38:48.588Z,4.91
2018-11-29T13:41:20.655Z,4.44
2018-11-29T13:43:53.638Z,4.53
2018-11-29T13:46:25.740Z,4.48
2018-11-29T13:48:57.879Z,4.37
2018-11-29T13:51:29.956Z,4.23
2018-11-29T13:54:02.073Z,4.50
2018-11-29T13:56:34.371Z,4.31
2018-11-29T13:59:06.587Z,4.45
2018-11-29T14:01:38.917Z,4.56
2018-11-29T14:04:11.094Z,4.29
2018-11-29T14:06:43.192Z,4.29
2018-11-29T14:09:15.356Z,4.65
2018-11-29T14:11:47.458Z,4.60
2018-11-29T14:14:19.678Z,4.72
2018-11-29T14:16:51.803Z,4.55
2018-11-29T14:19:24.026Z,4.43
2018-11-29T14:21:56.102Z,4.56
2018-11-29T14:24:28.213Z,4.04
2018-11-29T14:27:00.311Z,4.18
2018-11-29T14:29:32.414Z,3.93
2018-11-29T14:32:04.561Z,4.05
2018-11-29T14:34:36.697Z,4.07
2018-11-29T14:37:09.923Z,4.11
2018-11-29T14:39:41.949Z,3.90
2018-11-29T14:42:14.026Z,4.23
2018-11-29T14:44:46.084Z,4.23
2018-11-29T14:47:18.239Z,3.87
2018-11-29T14:49:50.257Z,3.80
2018-11-29T14:52:22.415Z,3.88
2018-11-29T14:54:54.648Z,3.97
2018-11-29T14:57:26.649Z,3.67
2018-11-29T14:59:59.540Z,3.82
2018-11-29T15:02:31.619Z,3.40
2018-11-29T15:05:07.752Z,3.26
2018-11-29T15:07:36.892Z,3.13
2018-11-29T15:10:10.775Z,3.36
2018-11-29T15:12:42.953Z,3.12
2018-11-29T15:15:15.762Z,2.97
2018-11-29T15:17:48.888Z,3.45
2018-11-29T15:20:35.568Z,3.21
2018-11-29T15:23:09.710Z,2.97
2018-11-29T15:25:41.857Z,3.07
2018-11-29T15:28:13.941Z,3.37
2018-11-29T15:30:46.101Z,3.26
2018-11-29T15:33:18.180Z,3.20
2018-11-29T15:35:50.367Z,3.07
2018-11-29T15:38:22.573Z,3.04
2018-11-29T15:40:54.764Z,3.05
2018-11-29T15:43:26.776Z,3.03
2018-11-29T15:45:59.041Z,2.87
2018-11-29T15:48:31.165Z,2.93
2018-11-29T15:51:03.339Z,2.68
2018-11-29T15:53:35.458Z,2.87
2018-11-29T15:56:07.617Z,2.71
2018-11-29T15:58:39.710Z,2.61
2018-11-29T16:01:11.779Z,2.68
2018-11-29T16:03:44.075Z,2.60
2018-11-29T16:06:18.626Z,2.81
2018-11-29T16:08:49.124Z,2.88
2018-11-29T16:11:21.358Z,2.37
2018-11-29T16:13:53.465Z,2.40
2018-11-29T16:16:25.568Z,2.32
2018-11-29T16:18:57.759Z,2.10
2018-11-29T16:21:29.863Z,2.52
2018-11-29T16:24:01.960Z,2.26
2018-11-29T16:26:34.107Z,2.32
2018-11-29T16:29:06.571Z,2.25
2018-11-29T16:31:38.758Z,2.26
2018-11-29T16:34:10.821Z,2.07
2018-11-29T16:36:42.996Z,2.24
2018-11-29T16:39:15.221Z,2.08
2018-11-29T16:41:47.290Z,1.95
2018-11-29T16:44:19.438Z,1.95
2018-11-29T16:46:51.564Z,2.31
2018-11-29T16:49:23.732Z,2.03
2018-11-29T16:51:55.912Z,2.24
2018-11-29T16:54:27.973Z,1.92
2018-11-29T16:57:00.119Z,1.86
2018-11-29T16:59:32.223Z,1.98
2018-11-29T17:02:04.491Z,2.29
2018-11-29T17:04:36.747Z,2.30
2018-11-29T17:07:09.396Z,2.28
2018-11-29T17:09:41.612Z,2.12
2018-11-29T17:12:14.598Z,1.98
2018-11-29T17:14:46.685Z,1.93
2018-11-29T17:17:18.831Z,1.95
2018-11-29T17:19:50.983Z,1.81
2018-11-29T17:22:23.127Z,1.83
2018-11-29T17:24:55.245Z,1.75
2018-11-29T17:27:27.430Z,1.85
2018-11-29T17:29:59.526Z,1.82
2018-11-29T17:32:31.697Z,1.84
2018-11-29T17:35:03.956Z,1.83
2018-11-29T17:37:36.318Z,1.81
2018-11-29T17:40:15.132Z,1.81
2018-11-29T17:42:47.282Z,1.78
2018-11-29T17:45:29.222Z,1.77
2018-11-29T17:48:12.668Z,1.80
2018-11-29T17:50:45.959Z,1.75
2018-11-29T17:53:19.456Z,1.84
2018-11-29T17:55:51.519Z,1.75
2018-11-29T17:58:23.631Z,1.82
2018-11-29T18:00:55.913Z,1.68
2018-11-29T18:03:28.048Z,1.62
2018-11-29T18:06:00.103Z,1.57
2018-11-29T18:08:32.411Z,1.73
2018-11-29T18:11:04.496Z,1.77
2018-11-29T18:13:38.793Z,1.63
2018-11-29T18:16:10.936Z,1.51
2018-11-29T18:18:43.075Z,1.78
2018-11-29T18:21:15.154Z,1.50
2018-11-29T18:23:47.275Z,1.42
2018-11-29T18:26:19.468Z,1.68
2018-11-29T18:28:51.831Z,1.69
2018-11-29T18:31:23.947Z,1.55
2018-11-29T18:33:56.468Z,1.37
2018-11-29T18:36:28.705Z,1.51
2018-11-29T18:39:01.432Z,1.66
2018-11-29T18:41:34.447Z,1.55
2018-11-29T18:44:06.924Z,1.36
2018-11-29T18:46:39.041Z,1.47
2018-11-29T18:49:11.272Z,1.52
2018-11-29T18:51:43.355Z,1.61
2018-11-29T18:54:15.621Z,1.48
2018-11-29T18:56:47.716Z,1.46
2018-11-29T18:59:19.818Z,1.75
2018-11-29T19:01:51.892Z,1.13
2018-11-29T19:04:23.995Z,1.17
2018-11-29T19:06:56.079Z,1.33
2018-11-29T19:09:28.273Z,1.22
2018-11-29T19:12:00.393Z,1.49
2018-11-29T19:14:32.522Z,1.63
2018-11-29T19:17:04.580Z,1.66
2018-11-29T19:19:36.688Z,1.87
2018-11-29T19:22:08.864Z,1.63
2018-11-29T19:24:40.983Z,1.55
2018-11-29T19:27:13.112Z,1.78
2018-11-29T19:29:45.212Z,1.59
2018-11-29T19:32:17.285Z,1.71
2018-11-29T19:34:49.401Z,1.78
2018-11-29T19:37:21.525Z,1.61
2018-11-29T19:39:53.635Z,1.90
2018-11-29T19:42:25.780Z,2.00
2018-11-29T19:44:58.063Z,2.24
2018-11-29T19:47:31.086Z,2.22
2018-11-29T19:50:03.177Z,1.98
2018-11-29T19:52:35.331Z,2.00
2018-11-29T19:55:09.137Z,1.99
2018-11-29T19:57:41.319Z,1.90
2018-11-29T20:00:15.314Z,2.24
2018-11-29T20:02:48.607Z,2.10
2018-11-29T20:05:20.809Z,2.07
2018-11-29T20:07:53.183Z,2.11
2018-11-29T20:10:25.477Z,1.94
2018-11-29T20:13:07.816Z,2.09
2018-11-29T20:15:45.126Z,1.83
2018-11-29T20:18:17.663Z,2.24
2018-11-29T20:20:49.740Z,2.12
2018-11-29T20:23:21.872Z,2.10
2018-11-29T20:25:54.142Z,2.13
2018-11-29T20:28:26.255Z,1.86
2018-11-29T20:30:58.380Z,2.15
2018-11-29T20:33:30.630Z,2.21
2018-11-29T20:36:02.735Z,2.26
2018-11-29T20:38:34.904Z,2.17
2018-11-29T20:41:07.677Z,2.13
2018-11-29T20:43:40.635Z,1.92
2018-11-29T20:46:12.787Z,2.03
2018-11-29T20:48:45.409Z,2.07
2018-11-29T20:51:17.559Z,1.88
2018-11-29T20:53:49.660Z,2.06
2018-11-29T20:56:21.830Z,2.10
2018-11-29T20:58:55.293Z,1.72
2018-11-29T21:01:27.503Z,1.66
2018-11-29T21:03:59.601Z,1.56
2018-11-29T21:06:31.753Z,1.95
2018-11-29T21:09:04.617Z,2.09
2018-11-29T21:11:37.616Z,1.91
2018-11-29T21:14:09.669Z,1.90
2018-11-29T21:16:44.285Z,2.18
2018-11-29T21:19:16.682Z,1.55
2018-11-29T21:21:49.779Z,1.86
2018-11-29T21:24:22.010Z,2.02
2018-11-29T21:26:54.132Z,1.87
2018-11-29T21:29:26.578Z,2.20
2018-11-29T21:31:59.182Z,2.51
2018-11-29T21:34:31.310Z,2.24
2018-11-29T21:37:03.443Z,2.09
2018-11-29T21:39:35.638Z,2.07
2018-11-29T21:42:07.865Z,2.27
2018-11-29T21:44:39.970Z,2.23
2018-11-29T21:47:12.148Z,2.02
2018-11-29T21:49:44.718Z,1.75
2018-11-29T21:52:17.008Z,1.86
2018-11-29T21:54:49.405Z,1.82
2018-11-29T21:57:21.982Z,1.82
2018-11-29T21:59:54.455Z,1.57
2018-11-29T22:02:29.690Z,1.72
2018-11-29T22:05:02.386Z,1.67
2018-11-29T22:07:35.158Z,1.50
2018-11-29T22:10:07.713Z,1.43
2018-11-29T22:12:40.826Z,1.41
2018-11-29T22:15:14.205Z,1.39
2018-11-29T22:18:21.855Z,1.60
2018-11-29T22:21:05.215Z,1.82
2018-11-29T22:23:39.339Z,1.80
2018-11-29T22:26:18.881Z,1.89
2018-11-29T22:28:51.359Z,1.69
2018-11-29T22:31:23.840Z,1.78
2018-11-29T22:33:56.400Z,1.63
2018-11-29T22:36:28.879Z,1.50
2018-11-29T22:39:01.363Z,1.63
2018-11-29T22:41:34.363Z,1.72
2018-11-29T22:44:06.731Z,1.83
2018-11-29T22:46:43.030Z,1.65
2018-11-29T22:49:15.123Z,1.66
2018-11-29T22:51:47.243Z,1.49
2018-11-29T22:54:19.323Z,1.79
2018-11-29T22:56:51.407Z,2.28
2018-11-29T22:59:23.524Z,2.47
2018-11-29T23:01:55.685Z,2.36
2018-11-29T23:04:27.769Z,2.48
2018-11-29T23:06:59.871Z,2.12
2018-11-29T23:09:32.865Z,2.29
2018-11-29T23:12:04.969Z,2.00
2018-11-29T23:14:37.940Z,2.02
2018-11-29T23:17:10.110Z,2.02
2018-11-29T23:19:42.239Z,2.26
2018-11-29T23:22:14.292Z,2.18
2018-11-29T23:24:46.378Z,2.49
2018-11-29T23:27:18.588Z,2.31
2018-11-29T23:29:50.690Z,2.63
2018-11-29T23:32:23.578Z,2.28
2018-11-29T23:34:55.687Z,2.28
2018-11-29T23:37:27.676Z,2.22
2018-11-29T23:39:59.807Z,2.16
2018-11-29T23:42:31.856Z,2.26
2018-11-29T23:45:05.491Z,2.05
2018-11-29T23:47:37.761Z,2.17
2018-11-29T23:50:20.198Z,2.41
2018-11-29T23:52:52.289Z,2.28
2018-11-29T23:55:24.943Z,2.21
2018-11-29T23:57:57.326Z,2.29
